createdAt,value
2022-11-04T00:00:10.971Z,819.5210
2022-11-04T00:00:24.112Z,820.0250
2022-11-04T00:00:38.195Z,812.0440
2022-11-04T00:00:49.348Z,815.0180
2022-11-04T00:01:00.598Z,810.5650
2022-11-04T00:01:11.670Z,814.0240
2022-11-04T00:01:22.888Z,814.0240
2022-11-04T00:01:33.949Z,812.5380
2022-11-04T00:01:45.026Z,817.0130
2022-11-04T00:01:56.227Z,819.0180
2022-11-04T00:02:07.581Z,816.5140
2022-11-04T00:02:18.779Z,815.5160
2022-11-04T00:02:29.994Z,809.0910
2022-11-04T00:02:41.127Z,812.0440
2022-11-04T00:02:52.282Z,813.0330
2022-11-04T00:03:03.370Z,814.0240
2022-11-04T00:03:14.409Z,819.0180
2022-11-04T00:03:25.459Z,818.0150
2022-11-04T00:03:36.649Z,813.0330
2022-11-04T00:03:47.680Z,811.5500
2022-11-04T00:03:58.729Z,816.5140
2022-11-04T00:04:09.930Z,818.0150
2022-11-04T00:04:21.005Z,812.5380
2022-11-04T00:04:32.065Z,811.0570
2022-11-04T00:04:43.209Z,817.5140
2022-11-04T00:04:54.359Z,810.5650
2022-11-04T00:05:05.428Z,818.0150
2022-11-04T00:05:16.488Z,814.5210
2022-11-04T00:05:27.535Z,815.0180
2022-11-04T00:05:38.569Z,819.0180
2022-11-04T00:05:49.769Z,821.5380
2022-11-04T00:06:00.976Z,819.0180
2022-11-04T00:06:12.172Z,815.0180
2022-11-04T00:06:23.371Z,817.5140
2022-11-04T00:06:34.409Z,817.5140
2022-11-04T00:06:45.460Z,819.5210
2022-11-04T00:06:56.653Z,819.0180
2022-11-04T00:07:07.851Z,817.0130
2022-11-04T00:07:19.049Z,818.5160
2022-11-04T00:07:30.249Z,821.0330
2022-11-04T00:07:41.479Z,823.0580
2022-11-04T00:07:52.649Z,822.0440
2022-11-04T00:08:03.848Z,821.0330
2022-11-04T00:08:15.047Z,827.1380
2022-11-04T00:08:26.249Z,825.6030
2022-11-04T00:08:37.289Z,826.6250
2022-11-04T00:08:48.359Z,829.1930
2022-11-04T00:08:59.554Z,832.8130
2022-11-04T00:09:10.745Z,827.6500
2022-11-04T00:09:21.928Z,829.1930
2022-11-04T00:09:33.133Z,834.3750
2022-11-04T00:09:44.328Z,831.2580
2022-11-04T00:09:55.537Z,835.4190
2022-11-04T00:10:06.734Z,836.4660
2022-11-04T00:10:17.929Z,839.0950
2022-11-04T00:10:29.133Z,836.4660
2022-11-04T00:10:40.169Z,840.1510
2022-11-04T00:10:51.215Z,841.2100
2022-11-04T00:11:02.412Z,840.1510
2022-11-04T00:11:13.614Z,847.0810
2022-11-04T00:11:24.812Z,844.4020
2022-11-04T00:11:36.008Z,844.9370
2022-11-04T00:11:47.209Z,851.4030
2022-11-04T00:11:58.409Z,844.9370
2022-11-04T00:12:09.608Z,844.9370
2022-11-04T00:12:20.810Z,848.1580
2022-11-04T00:12:32.009Z,851.4030
2022-11-04T00:12:43.106Z,855.7690
2022-11-04T00:12:54.138Z,855.7690
2022-11-04T00:13:05.691Z,859.6270
2022-11-04T00:13:17.171Z,855.7690
2022-11-04T00:13:28.329Z,859.0730
2022-11-04T00:13:39.399Z,856.3180
2022-11-04T00:13:50.638Z,861.8460
2022-11-04T00:14:01.708Z,859.6270
2022-11-04T00:14:12.813Z,861.2900
2022-11-04T00:14:24.008Z,868.5750
2022-11-04T00:14:35.211Z,870.8410
2022-11-04T00:14:46.250Z,870.2740
2022-11-04T00:14:57.298Z,875.4100
2022-11-04T00:15:08.489Z,873.1200
2022-11-04T00:15:19.528Z,877.7120
2022-11-04T00:15:30.569Z,874.2630
2022-11-04T00:15:41.770Z,875.9840
2022-11-04T00:15:52.810Z,874.8360
2022-11-04T00:16:03.888Z,877.7120
2022-11-04T00:16:15.049Z,880.0260
2022-11-04T00:16:26.250Z,881.7700
2022-11-04T00:16:37.292Z,887.0430
2022-11-04T00:16:48.330Z,888.8150
2022-11-04T00:16:59.382Z,887.6330
2022-11-04T00:17:10.439Z,887.0430
2022-11-04T00:17:21.614Z,892.9770
2022-11-04T00:17:32.809Z,895.3720
2022-11-04T00:17:44.032Z,893.5740
2022-11-04T00:17:55.210Z,895.3720
2022-11-04T00:18:06.409Z,896.5750
2022-11-04T00:18:17.608Z,894.7720
2022-11-04T00:18:28.808Z,896.5750
2022-11-04T00:18:40.009Z,898.9900
2022-11-04T00:18:51.208Z,900.2020
2022-11-04T00:19:02.279Z,902.6370
2022-11-04T00:19:13.349Z,902.6370
2022-11-04T00:19:24.507Z,903.2480
2022-11-04T00:19:35.689Z,905.6990
2022-11-04T00:19:46.891Z,908.1630
2022-11-04T00:19:58.089Z,907.5460
2022-11-04T00:20:09.288Z,912.5090
2022-11-04T00:20:20.328Z,906.3140
2022-11-04T00:20:31.371Z,913.1330
2022-11-04T00:20:42.579Z,918.1570
2022-11-04T00:20:53.768Z,918.1570
2022-11-04T00:21:04.809Z,927.0830
2022-11-04T00:21:15.858Z,923.8750
2022-11-04T00:21:27.050Z,926.4400
2022-11-04T00:21:38.248Z,927.7280
2022-11-04T00:21:49.448Z,929.6660
2022-11-04T00:22:00.519Z,925.1560
2022-11-04T00:22:11.568Z,929.0190
2022-11-04T00:22:22.729Z,938.8190
2022-11-04T00:22:33.929Z,934.8740
2022-11-04T00:22:45.149Z,932.9140
2022-11-04T00:22:56.329Z,938.8190
2022-11-04T00:23:07.897Z,936.1850
2022-11-04T00:23:19.089Z,938.8190
2022-11-04T00:23:30.178Z,946.1370
2022-11-04T00:23:41.248Z,940.1410
2022-11-04T00:23:52.329Z,944.1300
2022-11-04T00:24:03.414Z,944.1300
2022-11-04T00:24:14.428Z,948.8270
2022-11-04T00:24:25.609Z,949.5020
2022-11-04T00:24:36.809Z,952.2110
2022-11-04T00:24:48.010Z,957.6760
2022-11-04T00:24:59.208Z,954.9360
2022-11-04T00:25:10.408Z,954.9360
2022-11-04T00:25:21.458Z,954.2530
2022-11-04T00:25:32.607Z,954.9360
2022-11-04T00:25:43.718Z,956.9890
2022-11-04T00:25:54.888Z,964.5950
2022-11-04T00:26:05.929Z,961.8160
2022-11-04T00:26:16.970Z,960.4320
2022-11-04T00:26:28.021Z,964.5950
2022-11-04T00:26:39.050Z,964.5950
2022-11-04T00:26:50.269Z,967.3910
2022-11-04T00:27:01.459Z,970.2030
2022-11-04T00:27:12.649Z,963.2030
2022-11-04T00:27:23.848Z,973.0320
2022-11-04T00:27:35.057Z,971.6160
2022-11-04T00:27:46.280Z,968.7950
2022-11-04T00:27:57.450Z,975.8770
2022-11-04T00:28:08.708Z,970.2030
2022-11-04T00:28:20.191Z,977.3060
2022-11-04T00:28:31.368Z,975.8770
2022-11-04T00:28:42.569Z,977.3060
2022-11-04T00:28:53.770Z,983.0630
2022-11-04T00:29:04.979Z,988.8890
2022-11-04T00:29:16.169Z,985.2400
2022-11-04T00:29:27.209Z,985.9680
2022-11-04T00:29:38.250Z,986.6960
2022-11-04T00:29:49.448Z,992.5650
2022-11-04T00:30:00.648Z,997.7580
2022-11-04T00:30:11.721Z,987.4260
2022-11-04T00:30:22.782Z,994.0430
2022-11-04T00:30:33.819Z,994.7840
2022-11-04T00:30:44.878Z,1003.7590
2022-11-04T00:30:56.010Z,1005.2710
2022-11-04T00:31:07.217Z,1003.7590
2022-11-04T00:31:18.409Z,1000.7500
2022-11-04T00:31:29.515Z,1006.7870
2022-11-04T00:31:40.558Z,1006.7870
2022-11-04T00:31:51.690Z,1011.3640
2022-11-04T00:32:02.894Z,1008.3080
2022-11-04T00:32:13.929Z,1006.7870
2022-11-04T00:32:24.981Z,1006.0290
2022-11-04T00:32:36.171Z,1005.2710
2022-11-04T00:32:47.341Z,1014.4380
2022-11-04T00:32:58.568Z,1010.5980
2022-11-04T00:33:09.769Z,1019.0840
2022-11-04T00:33:20.968Z,1012.8980
2022-11-04T00:33:32.168Z,1016.7560
2022-11-04T00:33:43.221Z,1012.8980
2022-11-04T00:33:54.291Z,1014.4380
2022-11-04T00:34:05.458Z,1014.4380
2022-11-04T00:34:16.647Z,1017.5300
2022-11-04T00:34:27.864Z,1026.9230
2022-11-04T00:34:39.051Z,1026.9230
2022-11-04T00:34:50.105Z,1024.5590
2022-11-04T00:35:01.158Z,1024.5590
2022-11-04T00:35:12.329Z,1020.6420
2022-11-04T00:35:23.528Z,1025.3459
2022-11-04T00:35:34.730Z,1027.7140
2022-11-04T00:35:45.930Z,1030.0930
2022-11-04T00:35:57.130Z,1030.0930
2022-11-04T00:36:08.329Z,1030.0930
2022-11-04T00:36:19.527Z,1042.9690
2022-11-04T00:36:30.729Z,1034.8840
2022-11-04T00:36:41.930Z,1035.6870
2022-11-04T00:36:52.975Z,1034.8840
2022-11-04T00:37:04.008Z,1032.4830
2022-11-04T00:37:15.208Z,1037.2960
2022-11-04T00:37:26.414Z,1034.8840
2022-11-04T00:37:37.609Z,1037.2960
2022-11-04T00:37:48.838Z,1040.5300
2022-11-04T00:38:00.009Z,1034.8840
2022-11-04T00:38:11.313Z,1047.0590
2022-11-04T00:38:22.406Z,1045.4189
2022-11-04T00:38:33.608Z,1046.2380
2022-11-04T00:38:44.809Z,1044.6010
2022-11-04T00:38:56.008Z,1050.3540
2022-11-04T00:39:07.233Z,1054.5020
2022-11-04T00:39:18.408Z,1042.9690
2022-11-04T00:39:29.611Z,1060.3650
2022-11-04T00:39:40.809Z,1057.8450
2022-11-04T00:39:51.848Z,1052.8390
2022-11-04T00:40:02.888Z,1054.5020
2022-11-04T00:40:14.090Z,1057.8450
2022-11-04T00:40:25.287Z,1059.5240
2022-11-04T00:40:36.489Z,1057.8450
2022-11-04T00:40:47.695Z,1062.0530
2022-11-04T00:40:58.736Z,1057.8450
2022-11-04T00:41:09.780Z,1062.0530
2022-11-04T00:41:20.970Z,1061.2080
2022-11-04T00:41:32.169Z,1061.2080
2022-11-04T00:41:43.383Z,1062.0530
2022-11-04T00:41:54.439Z,1059.5240
2022-11-04T00:42:05.492Z,1064.5930
2022-11-04T00:42:16.647Z,1062.0530
2022-11-04T00:42:27.849Z,1066.2939
2022-11-04T00:42:39.049Z,1072.2889
2022-11-04T00:42:50.278Z,1067.1460
2022-11-04T00:43:01.448Z,1073.1510
2022-11-04T00:43:12.649Z,1078.3521
2022-11-04T00:43:23.859Z,1074.8790
2022-11-04T00:43:35.048Z,1073.1510
2022-11-04T00:43:46.248Z,1073.1510
2022-11-04T00:43:57.456Z,1074.0140
2022-11-04T00:44:08.498Z,1081.8480
2022-11-04T00:44:19.538Z,1074.0140
2022-11-04T00:44:30.729Z,1085.3660
2022-11-04T00:44:41.929Z,1079.2240
2022-11-04T00:44:53.130Z,1083.6040
2022-11-04T00:45:04.328Z,1084.4840
2022-11-04T00:45:15.379Z,1085.3660
2022-11-04T00:45:26.425Z,1088.0200
2022-11-04T00:45:37.609Z,1088.9070
2022-11-04T00:45:48.809Z,1085.3660
2022-11-04T00:46:00.014Z,1089.7960
2022-11-04T00:46:11.218Z,1089.7960
2022-11-04T00:46:22.415Z,1092.4709
2022-11-04T00:46:33.609Z,1085.3660
2022-11-04T00:46:44.808Z,1085.3660
2022-11-04T00:46:56.013Z,1096.0590
2022-11-04T00:47:07.208Z,1098.7650
2022-11-04T00:47:18.259Z,1096.0590
2022-11-04T00:47:29.320Z,1095.1600
2022-11-04T00:47:40.488Z,1100.5770
2022-11-04T00:47:51.719Z,1098.7650
2022-11-04T00:48:02.890Z,1096.0590
2022-11-04T00:48:14.091Z,1094.2620
2022-11-04T00:48:25.288Z,1100.5770
2022-11-04T00:48:36.491Z,1099.6710
2022-11-04T00:48:47.688Z,1100.5770
2022-11-04T00:48:58.888Z,1102.3950
2022-11-04T00:49:10.099Z,1099.6710
2022-11-04T00:49:21.128Z,1101.4850
2022-11-04T00:49:32.168Z,1101.4850
2022-11-04T00:49:43.370Z,1117.1550
2022-11-04T00:49:54.574Z,1106.0480
2022-11-04T00:50:05.787Z,1097.8621
2022-11-04T00:50:16.969Z,1110.6490
2022-11-04T00:50:28.177Z,1111.5740
2022-11-04T00:50:39.368Z,1111.5740
2022-11-04T00:50:50.569Z,1111.5740
2022-11-04T00:51:01.814Z,1109.7260
2022-11-04T00:51:25.168Z,1113.4280
2022-11-04T00:51:36.328Z,1113.4280
2022-11-04T00:51:47.530Z,1116.2209
2022-11-04T00:51:58.732Z,1120.9070
2022-11-04T00:52:09.818Z,1117.1550
2022-11-04T00:52:20.896Z,1106.9650
2022-11-04T00:52:32.008Z,1131.3560
2022-11-04T00:52:43.069Z,1122.7920
2022-11-04T00:52:54.179Z,1126.5820
2022-11-04T00:53:05.491Z,1116.2209
2022-11-04T00:53:16.851Z,1132.3160
2022-11-04T00:53:28.015Z,1126.5820
2022-11-04T00:53:39.209Z,1123.7371
2022-11-04T00:53:50.421Z,1129.4420
2022-11-04T00:54:01.611Z,1124.6840
2022-11-04T00:54:12.834Z,1120.9070
2022-11-04T00:54:24.008Z,1122.7920
2022-11-04T00:54:35.208Z,1125.6320
2022-11-04T00:54:46.408Z,1127.5341
2022-11-04T00:54:57.614Z,1125.6320
2022-11-04T00:55:08.810Z,1131.3560
2022-11-04T00:55:19.848Z,1121.8490
2022-11-04T00:55:30.888Z,1127.5341
2022-11-04T00:55:42.091Z,1139.0790
2022-11-04T00:55:53.288Z,1142.9790
2022-11-04T00:56:04.492Z,1131.3560
2022-11-04T00:56:15.691Z,1136.1700
2022-11-04T00:56:26.896Z,1142.0020
2022-11-04T00:56:38.090Z,1125.6320
2022-11-04T00:56:49.288Z,1133.2770
2022-11-04T00:57:00.329Z,1132.3160
2022-11-04T00:57:11.378Z,1143.9590
2022-11-04T00:57:22.449Z,1144.9399
2022-11-04T00:57:33.523Z,1140.0510
2022-11-04T00:57:44.649Z,1137.1379
2022-11-04T00:57:55.898Z,1146.9070
2022-11-04T00:58:07.049Z,1144.9399
2022-11-04T00:58:18.248Z,1141.0260
2022-11-04T00:58:29.329Z,1129.4420
2022-11-04T00:58:40.389Z,1146.9070
2022-11-04T00:58:51.533Z,1142.0020
2022-11-04T00:59:02.731Z,1144.9399
2022-11-04T00:59:14.718Z,1144.9399
2022-11-04T00:59:25.849Z,1142.9790
2022-11-04T00:59:36.890Z,1142.9790
2022-11-04T00:59:47.950Z,1144.9399
2022-11-04T00:59:59.049Z,1142.9790
2022-11-04T01:00:10.249Z,1147.8929
2022-11-04T01:00:21.448Z,1150.8621
2022-11-04T01:00:32.649Z,1147.8929
2022-11-04T01:00:43.848Z,1145.9230
2022-11-04T01:00:55.009Z,1149.8710
2022-11-04T01:01:06.079Z,1154.8440
2022-11-04T01:01:17.196Z,1148.8810
2022-11-04T01:01:28.446Z,1154.8440
2022-11-04T01:01:39.720Z,1156.8459
2022-11-04T01:01:51.288Z,1160.8700
2022-11-04T01:02:02.793Z,1157.8490
2022-11-04T01:02:14.350Z,1150.8621
2022-11-04T01:02:25.816Z,1162.8920
2022-11-04T01:02:37.389Z,1157.8490
2022-11-04T01:02:48.819Z,1162.8920
2022-11-04T01:02:59.909Z,1154.8440
2022-11-04T01:03:11.654Z,1162.8920
2022-11-04T01:03:22.928Z,1156.8459
2022-11-04T01:03:34.089Z,1156.8459
2022-11-04T01:03:45.291Z,1161.8800
2022-11-04T01:03:56.500Z,1167.9790
2022-11-04T01:04:07.570Z,1160.8700
2022-11-04T01:04:18.638Z,1157.8490
2022-11-04T01:04:29.780Z,1162.8920
2022-11-04T01:04:40.970Z,1166.9580
2022-11-04T01:04:52.168Z,1171.0530
2022-11-04T01:05:03.369Z,1171.0530
2022-11-04T01:05:14.420Z,1162.8920
2022-11-04T01:05:25.505Z,1164.9210
2022-11-04T01:05:36.650Z,1173.1110
2022-11-04T01:05:47.848Z,1163.9060
2022-11-04T01:05:59.060Z,1169.0020
2022-11-04T01:06:10.251Z,1166.9580
2022-11-04T01:06:21.448Z,1175.1760
2022-11-04T01:06:32.650Z,1169.0020
2022-11-04T01:06:43.852Z,1173.1110
2022-11-04T01:06:55.053Z,1169.0020
2022-11-04T01:07:06.249Z,1171.0530
2022-11-04T01:07:17.300Z,1164.9210
2022-11-04T01:07:28.389Z,1175.1760
2022-11-04T01:07:43.504Z,1174.1420
2022-11-04T01:07:54.927Z,1175.1760
2022-11-04T01:08:06.120Z,1177.2490
2022-11-04T01:08:17.168Z,1175.1760
2022-11-04T01:08:28.229Z,1173.1110
2022-11-04T01:08:39.303Z,1180.3710
2022-11-04T01:08:50.348Z,1177.2490
2022-11-04T01:09:01.449Z,1174.1420
2022-11-04T01:09:12.658Z,1181.4160
2022-11-04T01:09:23.873Z,1175.1760
2022-11-04T01:09:35.049Z,1175.1760
2022-11-04T01:09:46.249Z,1176.2111
2022-11-04T01:09:57.454Z,1178.2880
2022-11-04T01:10:08.651Z,1172.0811
2022-11-04T01:10:19.854Z,1179.3290
2022-11-04T01:10:31.049Z,1181.4160
2022-11-04T01:10:42.100Z,1177.2490
2022-11-04T01:10:53.158Z,1178.2880
2022-11-04T01:11:04.330Z,1189.8400
2022-11-04T01:11:15.539Z,1189.8400
2022-11-04T01:11:26.734Z,1185.6130
2022-11-04T01:11:37.930Z,1188.7800
2022-11-04T01:11:48.981Z,1182.4620
2022-11-04T01:12:00.049Z,1183.5110
2022-11-04T01:12:11.209Z,1189.8400
2022-11-04T01:12:22.418Z,1184.5610
2022-11-04T01:12:33.462Z,1189.8400
2022-11-04T01:12:44.529Z,1179.3290
2022-11-04T01:12:55.578Z,1188.7800
2022-11-04T01:13:07.026Z,1185.6130
2022-11-04T01:13:18.449Z,1185.6130
2022-11-04T01:13:29.608Z,1198.3840
2022-11-04T01:13:40.812Z,1191.9640
2022-11-04T01:13:51.878Z,1185.6130
2022-11-04T01:14:02.948Z,1190.9010
2022-11-04T01:14:14.088Z,1194.0970
2022-11-04T01:14:25.300Z,1189.8400
2022-11-04T01:14:36.489Z,1188.7800
2022-11-04T01:14:47.689Z,1189.8400
2022-11-04T01:14:58.891Z,1195.1660
2022-11-04T01:15:10.088Z,1189.8400
2022-11-04T01:15:21.289Z,1191.9640
2022-11-04T01:15:32.488Z,1187.7220
2022-11-04T01:15:43.688Z,1193.0291
2022-11-04T01:15:54.730Z,1194.0970
2022-11-04T01:16:05.779Z,1191.9640
2022-11-04T01:16:17.013Z,1181.4160
2022-11-04T01:16:39.369Z,1193.0291
2022-11-04T01:16:50.569Z,1190.9010
2022-11-04T01:17:01.770Z,1183.5110
2022-11-04T01:17:12.968Z,1189.8400
2022-11-04T01:17:24.174Z,1196.2371
2022-11-04T01:17:35.369Z,1200.5400
2022-11-04T01:17:46.569Z,1196.2371
2022-11-04T01:17:57.640Z,1202.7030
2022-11-04T01:18:09.221Z,1202.7030
2022-11-04T01:18:20.528Z,1197.3090
2022-11-04T01:18:31.689Z,1205.9620
2022-11-04T01:18:42.889Z,1198.3840
2022-11-04T01:18:53.934Z,1200.5400
2022-11-04T01:19:05.006Z,1203.7870
2022-11-04T01:19:16.170Z,1201.6200
2022-11-04T01:19:27.369Z,1194.0970
2022-11-04T01:19:38.568Z,1202.7030
2022-11-04T01:19:49.769Z,1201.6200
2022-11-04T01:20:00.808Z,1210.3350
2022-11-04T01:20:11.860Z,1208.1450
2022-11-04T01:20:23.047Z,1203.7870
2022-11-04T01:20:34.099Z,1207.0520
2022-11-04T01:20:45.159Z,1203.7870
2022-11-04T01:20:56.328Z,1211.4340
2022-11-04T01:21:07.888Z,1211.4340
2022-11-04T01:21:19.049Z,1210.3350
2022-11-04T01:21:30.248Z,1209.2390
2022-11-04T01:21:41.449Z,1208.1450
2022-11-04T01:21:52.658Z,1202.7030
2022-11-04T01:22:03.849Z,1207.0520
2022-11-04T01:22:15.050Z,1205.9620
2022-11-04T01:22:26.248Z,1204.8740
2022-11-04T01:22:37.312Z,1210.3350
2022-11-04T01:22:48.369Z,1203.7870
2022-11-04T01:22:59.418Z,1198.3840
2022-11-04T01:23:10.509Z,1208.1450
2022-11-04T01:23:21.613Z,1209.2390
2022-11-04T01:23:32.809Z,1214.7410
2022-11-04T01:23:44.012Z,1213.6360
2022-11-04T01:23:55.119Z,1218.0660
2022-11-04T01:24:06.179Z,1216.9550
2022-11-04T01:24:17.289Z,1210.3350
2022-11-04T01:24:28.513Z,1218.0660
2022-11-04T01:24:39.529Z,1218.0660
2022-11-04T01:24:50.579Z,1214.7410
2022-11-04T01:25:01.631Z,1209.2390
2022-11-04T01:25:12.669Z,1213.6360
2022-11-04T01:25:23.848Z,1218.0660
2022-11-04T01:25:35.054Z,1215.8470
2022-11-04T01:25:46.251Z,1224.7710
2022-11-04T01:25:57.453Z,1214.7410
2022-11-04T01:26:08.648Z,1220.2930
2022-11-04T01:26:19.848Z,1211.4340
2022-11-04T01:26:31.049Z,1231.5500
2022-11-04T01:26:42.247Z,1220.2930
2022-11-04T01:26:53.448Z,1227.0220
2022-11-04T01:27:04.648Z,1220.2930
2022-11-04T01:27:15.689Z,1232.6870
2022-11-04T01:27:26.728Z,1222.5270
2022-11-04T01:27:37.929Z,1228.1510
2022-11-04T01:27:49.128Z,1221.4091
2022-11-04T01:28:00.338Z,1228.1510
2022-11-04T01:28:11.630Z,1222.5270
2022-11-04T01:28:22.737Z,1216.9550
2022-11-04T01:28:33.930Z,1229.2820
2022-11-04T01:28:45.140Z,1229.2820
2022-11-04T01:28:56.336Z,1224.7710
2022-11-04T01:29:07.529Z,1236.1110
2022-11-04T01:29:18.579Z,1228.1510
2022-11-04T01:29:29.618Z,1224.7710
2022-11-04T01:29:40.808Z,1227.0220
2022-11-04T01:29:52.015Z,1230.4150
2022-11-04T01:30:03.055Z,1236.1110
2022-11-04T01:30:14.095Z,1229.2820
2022-11-04T01:30:25.214Z,1229.2820
2022-11-04T01:30:36.277Z,1233.8260
2022-11-04T01:30:47.368Z,1233.8260
2022-11-04T01:30:58.576Z,1229.2820
2022-11-04T01:31:09.778Z,1231.5500
2022-11-04T01:31:20.975Z,1236.1110
2022-11-04T01:31:32.168Z,1219.1780
2022-11-04T01:31:43.370Z,1231.5500
2022-11-04T01:31:54.568Z,1233.8260
2022-11-04T01:32:05.679Z,1237.2570
2022-11-04T01:32:16.748Z,1234.9680
2022-11-04T01:32:27.809Z,1243.0170
2022-11-04T01:32:38.868Z,1231.5500
2022-11-04T01:32:49.929Z,1228.1510
2022-11-04T01:33:01.130Z,1243.0170
2022-11-04T01:33:12.357Z,1233.8260
2022-11-04T01:33:23.429Z,1229.2820
2022-11-04T01:33:34.469Z,1238.4041
2022-11-04T01:33:45.618Z,1244.1750
2022-11-04T01:33:56.810Z,1238.4041
2022-11-04T01:34:07.848Z,1236.1110
2022-11-04T01:34:18.889Z,1231.5500
2022-11-04T01:34:30.090Z,1239.5540
2022-11-04T01:34:43.492Z,1241.8600
2022-11-04T01:34:55.088Z,1233.8260
2022-11-04T01:35:06.249Z,1233.8260
2022-11-04T01:35:17.453Z,1232.6870
2022-11-04T01:35:28.655Z,1238.4041
2022-11-04T01:35:39.859Z,1228.1510
2022-11-04T01:35:51.048Z,1234.9680
2022-11-04T01:36:02.265Z,1238.4041
2022-11-04T01:36:13.328Z,1240.7061
2022-11-04T01:36:24.390Z,1229.2820
2022-11-04T01:36:35.532Z,1240.7061
2022-11-04T01:36:46.728Z,1241.8600
2022-11-04T01:36:57.779Z,1240.7061
2022-11-04T01:37:08.847Z,1240.7061
2022-11-04T01:37:19.889Z,1239.5540
2022-11-04T01:37:30.949Z,1243.0170
2022-11-04T01:37:42.091Z,1244.1750
2022-11-04T01:37:53.288Z,1243.0170
2022-11-04T01:38:04.350Z,1245.3361
2022-11-04T01:38:15.441Z,1243.0170
2022-11-04T01:38:26.491Z,1246.4990
2022-11-04T01:38:37.558Z,1247.6639
2022-11-04T01:38:48.658Z,1240.7061
2022-11-04T01:38:59.719Z,1245.3361
2022-11-04T01:39:10.788Z,1244.1750
2022-11-04T01:39:21.932Z,1247.6639
2022-11-04T01:39:32.991Z,1243.0170
2022-11-04T01:39:44.018Z,1250.0000
2022-11-04T01:39:55.209Z,1244.1750
2022-11-04T01:40:06.278Z,1250.0000
2022-11-04T01:40:17.339Z,1252.3450
2022-11-04T01:40:28.488Z,1252.3450
2022-11-04T01:40:39.549Z,1248.8311
2022-11-04T01:40:50.609Z,1243.0170
2022-11-04T01:41:01.779Z,1247.6639
2022-11-04T01:41:12.968Z,1248.8311
2022-11-04T01:41:24.169Z,1243.0170
2022-11-04T01:41:35.374Z,1246.4990
2022-11-04T01:41:46.567Z,1252.3450
2022-11-04T01:41:57.863Z,1247.6639
2022-11-04T01:42:08.970Z,1246.4990
2022-11-04T01:42:20.177Z,1254.6990
2022-11-04T01:42:31.368Z,1247.6639
2022-11-04T01:42:42.423Z,1247.6639
2022-11-04T01:42:53.480Z,1254.6990
2022-11-04T01:43:04.996Z,1250.0000
2022-11-04T01:43:16.218Z,1250.0000
2022-11-04T01:43:27.368Z,1245.3361
2022-11-04T01:43:38.409Z,1258.2469
2022-11-04T01:43:49.451Z,1247.6639
2022-11-04T01:44:00.650Z,1245.3361
2022-11-04T01:44:11.848Z,1246.4990
2022-11-04T01:44:23.048Z,1252.3450
2022-11-04T01:44:34.249Z,1250.0000
2022-11-04T01:44:45.288Z,1250.0000
2022-11-04T01:44:56.328Z,1253.5210
2022-11-04T01:45:07.378Z,1248.8311
2022-11-04T01:45:18.448Z,1246.4990
2022-11-04T01:45:29.608Z,1252.3450
2022-11-04T01:45:40.810Z,1252.3450
2022-11-04T01:45:51.848Z,1254.6990
2022-11-04T01:46:02.898Z,1252.3450
2022-11-04T01:46:14.090Z,1254.6990
2022-11-04T01:46:25.289Z,1257.0620
2022-11-04T01:46:36.489Z,1263.0090
2022-11-04T01:46:47.702Z,1255.8800
2022-11-04T01:46:58.889Z,1261.8149
2022-11-04T01:47:10.087Z,1257.0620
2022-11-04T01:47:21.291Z,1252.3450
2022-11-04T01:47:32.489Z,1257.0620
2022-11-04T01:47:43.689Z,1254.6990
2022-11-04T01:47:54.728Z,1250.0000
2022-11-04T01:48:05.760Z,1266.6030
2022-11-04T01:48:16.997Z,1257.0620
2022-11-04T01:48:28.168Z,1252.3450
2022-11-04T01:48:39.372Z,1261.8149
2022-11-04T01:48:50.568Z,1257.0620
2022-11-04T01:49:01.768Z,1259.4340
2022-11-04T01:49:12.978Z,1255.8800
2022-11-04T01:49:24.172Z,1263.0090
2022-11-04T01:49:37.972Z,1259.4340
2022-11-04T01:49:52.335Z,1248.8311
2022-11-04T01:50:03.528Z,1254.6990
2022-11-04T01:50:14.600Z,1247.6639
2022-11-04T01:50:25.676Z,1252.3450
2022-11-04T01:50:36.808Z,1245.3361
2022-11-04T01:50:48.015Z,1250.0000
2022-11-04T01:50:59.054Z,1250.0000
2022-11-04T01:51:10.099Z,1250.0000
2022-11-04T01:51:21.289Z,1254.6990
2022-11-04T01:51:32.487Z,1247.6639
2022-11-04T01:51:43.688Z,1252.3450
2022-11-04T01:51:54.888Z,1252.3450
2022-11-04T01:52:05.928Z,1250.0000
2022-11-04T01:52:16.969Z,1248.8311
2022-11-04T01:52:28.168Z,1250.0000
2022-11-04T01:52:39.377Z,1250.0000
2022-11-04T01:52:50.571Z,1254.6990
2022-11-04T01:53:01.769Z,1248.8311
2022-11-04T01:53:12.969Z,1254.6990
2022-11-04T01:53:24.209Z,1254.6990
2022-11-04T01:53:35.369Z,1252.3450
2022-11-04T01:53:46.569Z,1254.6990
2022-11-04T01:53:57.769Z,1251.1720
2022-11-04T01:54:08.809Z,1255.8800
2022-11-04T01:54:19.847Z,1258.2469
2022-11-04T01:54:30.888Z,1261.8149
2022-11-04T01:54:41.953Z,1261.8149
2022-11-04T01:54:53.128Z,1266.6030
2022-11-04T01:55:04.329Z,1254.6990
2022-11-04T01:55:15.372Z,1255.8800
2022-11-04T01:55:26.409Z,1259.4340
2022-11-04T01:55:37.468Z,1254.6990
2022-11-04T01:55:48.528Z,1253.5210
2022-11-04T01:55:59.688Z,1254.6990
2022-11-04T01:56:10.888Z,1257.0620
2022-11-04T01:56:21.928Z,1254.6990
2022-11-04T01:56:32.971Z,1261.8149
2022-11-04T01:56:44.179Z,1264.2050
2022-11-04T01:56:55.249Z,1261.8149
2022-11-04T01:57:06.378Z,1254.6990
2022-11-04T01:57:17.454Z,1254.6990
2022-11-04T01:57:28.498Z,1255.8800
2022-11-04T01:57:39.526Z,1258.2469
2022-11-04T01:57:50.729Z,1266.6030
2022-11-04T01:58:01.928Z,1264.2050
2022-11-04T01:58:13.132Z,1248.8311
2022-11-04T01:58:24.328Z,1260.6230
2022-11-04T01:58:35.648Z,1261.8149
2022-11-04T01:58:46.730Z,1264.2050
2022-11-04T01:58:57.928Z,1263.0090
2022-11-04T01:59:09.131Z,1261.8149
2022-11-04T01:59:20.329Z,1260.6230
2022-11-04T01:59:31.531Z,1264.2050
2022-11-04T01:59:42.571Z,1257.0620
2022-11-04T01:59:53.608Z,1263.0090
2022-11-04T02:00:04.816Z,1252.3450
2022-11-04T02:00:16.010Z,1264.2050
2022-11-04T02:00:27.215Z,1265.4030
2022-11-04T02:00:38.408Z,1259.4340
2022-11-04T02:00:49.607Z,1261.8149
2022-11-04T02:01:00.882Z,1271.4290
2022-11-04T02:01:12.098Z,1267.8060
2022-11-04T02:01:23.383Z,1263.0090
2022-11-04T02:01:34.596Z,1261.8149
2022-11-04T02:01:45.937Z,1264.2050
2022-11-04T02:01:57.347Z,1264.2050
2022-11-04T02:02:08.887Z,1271.4290
2022-11-04T02:02:20.311Z,1276.2910
2022-11-04T02:02:31.485Z,1264.2050
2022-11-04T02:02:42.646Z,1266.6030
2022-11-04T02:02:53.777Z,1264.2050
2022-11-04T02:03:05.011Z,1269.0110
2022-11-04T02:03:16.170Z,1269.0110
2022-11-04T02:03:27.369Z,1264.2050
2022-11-04T02:03:38.448Z,1266.6030
2022-11-04T02:03:49.509Z,1270.2190
2022-11-04T02:04:00.649Z,1261.8149
2022-11-04T02:04:11.849Z,1266.6030
2022-11-04T02:04:22.892Z,1269.0110
2022-11-04T02:04:33.927Z,1261.8149
2022-11-04T02:04:45.132Z,1267.8060
2022-11-04T02:04:56.328Z,1277.5120
2022-11-04T02:05:07.529Z,1266.6030
2022-11-04T02:05:18.728Z,1261.8149
2022-11-04T02:05:29.769Z,1267.8060
2022-11-04T02:05:40.810Z,1272.6410
2022-11-04T02:05:52.007Z,1270.2190
2022-11-04T02:06:03.208Z,1267.8060
2022-11-04T02:06:14.408Z,1273.8550
2022-11-04T02:06:25.614Z,1261.8149
2022-11-04T02:06:36.808Z,1258.2469
2022-11-04T02:06:48.008Z,1269.0110
2022-11-04T02:06:59.217Z,1269.0110
2022-11-04T02:07:10.409Z,1265.4030
2022-11-04T02:07:21.608Z,1267.8060
2022-11-04T02:07:32.651Z,1271.4290
2022-11-04T02:07:43.699Z,1263.0090
2022-11-04T02:07:54.894Z,1270.2190
2022-11-04T02:08:06.089Z,1283.6541
2022-11-04T02:08:17.294Z,1276.2910
2022-11-04T02:08:28.488Z,1269.0110
2022-11-04T02:08:39.548Z,1271.4290
2022-11-04T02:08:50.613Z,1269.0110